地図

経路データ

SID SEASON NUMBER BASIN SUBBASIN NAME ISO_TIME NATURE LAT LON WMO_WIND WMO_PRES WMO_AGENCY TRACK_TYPE DIST2LAND LANDFALL IFLAG USA_AGENCY USA_ATCF_ID USA_LAT USA_LON USA_RECORD USA_STATUS USA_WIND USA_PRES USA_SSHS USA_R34_NE USA_R34_SE USA_R34_SW USA_R34_NW USA_R50_NE USA_R50_SE USA_R50_SW USA_R50_NW USA_R64_NE USA_R64_SE USA_R64_SW USA_R64_NW USA_POCI USA_ROCI USA_RMW USA_EYE TOKYO_LAT TOKYO_LON TOKYO_GRADE TOKYO_WIND TOKYO_PRES TOKYO_R50_DIR TOKYO_R50_LONG TOKYO_R50_SHORT TOKYO_R30_DIR TOKYO_R30_LONG TOKYO_R30_SHORT TOKYO_LAND CMA_LAT CMA_LON CMA_CAT CMA_WIND CMA_PRES HKO_LAT HKO_LON HKO_CAT HKO_WIND HKO_PRES NEWDELHI_LAT NEWDELHI_LON NEWDELHI_GRADE NEWDELHI_WIND NEWDELHI_PRES NEWDELHI_CI NEWDELHI_DP NEWDELHI_POCI REUNION_LAT REUNION_LON REUNION_TYPE REUNION_WIND REUNION_PRES REUNION_TNUM REUNION_CI REUNION_RMW REUNION_R34_NE REUNION_R34_SE REUNION_R34_SW REUNION_R34_NW REUNION_R50_NE REUNION_R50_SE REUNION_R50_SW REUNION_R50_NW REUNION_R64_NE REUNION_R64_SE REUNION_R64_SW REUNION_R64_NW BOM_LAT BOM_LON BOM_TYPE BOM_WIND BOM_PRES BOM_TNUM BOM_CI BOM_RMW BOM_R34_NE BOM_R34_SE BOM_R34_SW BOM_R34_NW BOM_R50_NE BOM_R50_SE BOM_R50_SW BOM_R50_NW BOM_R64_NE BOM_R64_SE BOM_R64_SW BOM_R64_NW BOM_ROCI BOM_POCI BOM_EYE BOM_POS_METHOD BOM_PRES_METHOD NADI_LAT NADI_LON NADI_CAT NADI_WIND NADI_PRES WELLINGTON_LAT WELLINGTON_LON WELLINGTON_WIND WELLINGTON_PRES DS824_LAT DS824_LON DS824_STAGE DS824_WIND DS824_PRES TD9636_LAT TD9636_LON TD9636_STAGE TD9636_WIND TD9636_PRES TD9635_LAT TD9635_LON TD9635_WIND TD9635_PRES TD9635_ROCI NEUMANN_LAT NEUMANN_LON NEUMANN_CLASS NEUMANN_WIND NEUMANN_PRES MLC_LAT MLC_LON MLC_CLASS MLC_WIND MLC_PRES USA_GUST BOM_GUST BOM_GUST_PER REUNION_GUST REUNION_GUST_PER USA_SEAHGT USA_SEARAD_NE USA_SEARAD_SE USA_SEARAD_SW USA_SEARAD_NW STORM_SPEED STORM_DIR
1993025S12136 1993 7 SP EA NOT_NAMED 1993-01-25 00:00:00 TS -11.6000 136.200 main 55 24 O___________O_ jtwc_sh SH141993 -11.6000 136.200 20 -1 -11.6000 136.200 TC 20 6 135
1993025S12136 1993 7 SP EA NOT_NAMED 1993-01-25 03:00:00 TS -11.8201 136.420 main 24 10 P___________P_ SH141993 -11.8201 136.420 20 -1 -11.8201 136.420 TC 20 6 136
1993025S12136 1993 7 SP EA NOT_NAMED 1993-01-25 06:00:00 TS -12.0000 136.600 main 10 10 O___________O_ jtwc_sh SH141993 -12.0000 136.600 20 -1 -12.0000 136.600 TC 20 4 136
1993025S12136 1993 7 SP EA NOT_NAMED 1993-01-25 09:00:00 TS -12.1150 136.715 main 21 11 P___________P_ SH141993 -12.1150 136.715 20 -1 -12.1150 136.715 TC 20 3 136
1993025S12136 1993 7 SP EA NOT_NAMED 1993-01-25 12:00:00 TS -12.2000 136.800 main 11 0 O___________O_ jtwc_sh SH141993 -12.2000 136.800 20 -1 -12.2000 136.800 TC 20 3 135
1993025S12136 1993 7 SP EA NOT_NAMED 1993-01-25 15:00:00 TS -12.3000 136.900 main 0 0 P___________P_ SH141993 -12.3000 136.900 22 -1 -12.3000 136.900 TC 22 3 136
1993025S12136 1993 7 SP EA NOT_NAMED 1993-01-25 18:00:00 TS -12.4000 137.000 main 10 10 O___________O_ jtwc_sh SH141993 -12.4000 137.000 25 -1 -12.4000 137.000 TC 25 3 125
1993025S12136 1993 7 SP EA NOT_NAMED 1993-01-25 21:00:00 TS -12.4550 137.130 main 24 24 P___________P_ SH141993 -12.4550 137.130 27 -1 -12.4550 137.130 TC 27 3 136
1993025S12136 1993 7 SP EA NOT_NAMED 1993-01-26 00:00:00 TS -12.6000 137.200 main 39 39 O___________O_ jtwc_sh SH141993 -12.6000 137.200 30 -1 -12.6000 137.200 TC 30 5 177
1993025S12136 1993 7 SP EA NOT_NAMED 1993-01-26 03:00:00 TS -12.9624 137.160 main 54 43 P___________P_ SH141993 -12.9624 137.160 30 -1 -12.9624 137.160 TC 30 8 194
1993025S12136 1993 7 SP EA NOT_NAMED 1993-01-26 06:00:00 TS -13.4000 137.000 main 46 0 O___________O_ jtwc_sh SH141993 -13.4000 137.000 30 -1 -13.4000 137.000 TC 30 9 206
1993025S12136 1993 7 SP EA NOT_NAMED 1993-01-26 09:00:00 TS -13.8025 136.738 main 0 0 P___________P_ SH141993 -13.8025 136.738 30 -1 -13.8025 136.738 TC 30 9 220
1993025S12136 1993 7 SP EA NOT_NAMED 1993-01-26 12:00:00 TS -14.1000 136.400 main 0 0 O___________O_ jtwc_sh SH141993 -14.1000 136.400 30 -1 -14.1000 136.400 TC 30 8 239
1993025S12136 1993 7 SP EA NOT_NAMED 1993-01-26 15:00:00 TS -14.1950 136.050 main 10 0 P___________P_ SH141993 -14.1950 136.050 32 -1 -14.1950 136.050 TC 32 7 262
1993025S12136 1993 7 SP EA NOT_NAMED 1993-01-26 18:00:00 TS -14.2000 135.700 main 0 0 O___________O_ jtwc_sh SH141993 -14.2000 135.700 35 0 -14.2000 135.700 TC 35 6 266
1993025S12136 1993 7 SP EA NOT_NAMED 1993-01-26 21:00:00 TS -14.2424 135.400 main 0 0 P___________P_ SH141993 -14.2424 135.400 35 0 -14.2424 135.400 TC 35 6 260
1993025S12136 1993 7 SP EA NOT_NAMED 1993-01-27 00:00:00 TS -14.3000 135.100 main 0 0 O___________O_ jtwc_sh SH141993 -14.3000 135.100 35 0 -14.3000 135.100 TC 35 6 257
1993025S12136 1993 7 SI WA NOT_NAMED 1993-01-27 03:00:00 TS -14.3925 134.750 main 0 0 P___________P_ SH141993 -14.3925 134.750 35 0 -14.3925 134.750 TC 35 7 254
1993025S12136 1993 7 SI WA NOT_NAMED 1993-01-27 06:00:00 TS -14.5000 134.400 main 0 0 O___________O_ jtwc_sh SH141993 -14.5000 134.400 35 0 -14.5000 134.400 TC 35 7 253
1993025S12136 1993 7 SI WA NOT_NAMED 1993-01-27 09:00:00 TS -14.5924 134.092 main 0 0 P___________P_ SH141993 -14.5924 134.092 32 -1 -14.5924 134.092 TC 32 6 251
1993025S12136 1993 7 SI WA NOT_NAMED 1993-01-27 12:00:00 TS -14.7000 133.800 main 0 0 O___________O_ jtwc_sh SH141993 -14.7000 133.800 30 -1 -14.7000 133.800 TC 30 6 246
1993025S12136 1993 7 SI WA NOT_NAMED 1993-01-27 15:00:00 TS -14.8424 133.507 main 0 0 P___________P_ SH141993 -14.8424 133.507 27 -1 -14.8424 133.507 TC 27 7 243
1993025S12136 1993 7 SI WA NOT_NAMED 1993-01-27 18:00:00 TS -15.0000 133.200 main 0 0 O___________O_ jtwc_sh SH141993 -15.0000 133.200 25 -1 -15.0000 133.200 TC 25 7 243
1993025S12136 1993 7 SI WA NOT_NAMED 1993-01-27 21:00:00 TS -15.1575 132.858 main 0 0 P___________P_ SH141993 -15.1575 132.858 25 -1 -15.1575 132.858 TC 25 7 246
1993025S12136 1993 7 SI WA NOT_NAMED 1993-01-28 00:00:00 TS -15.3000 132.500 main 0 0 O___________O_ jtwc_sh SH141993 -15.3000 132.500 25 -1 -15.3000 132.500 TC 25 7 249
1993025S12136 1993 7 SI WA NOT_NAMED 1993-01-28 03:00:00 TS -15.4149 132.157 main 0 0 P___________P_ SH141993 -15.4149 132.157 25 -1 -15.4149 132.157 TC 25 7 254
1993025S12136 1993 7 SI WA NOT_NAMED 1993-01-28 06:00:00 TS -15.5000 131.800 main 0 0 O___________O_ jtwc_sh SH141993 -15.5000 131.800 25 -1 -15.5000 131.800 TC 25 7 259
1993025S12136 1993 7 SI WA NOT_NAMED 1993-01-28 09:00:00 TS -15.5575 131.407 main 0 0 P___________P_ SH141993 -15.5575 131.407 22 -1 -15.5575 131.407 TC 22 8 263
1993025S12136 1993 7 SI WA NOT_NAMED 1993-01-28 12:00:00 TS -15.6000 131.000 main 0 0 O___________O_ jtwc_sh SH141993 -15.6000 131.000 20 -1 -15.6000 131.000 TC 20 8 263
1993025S12136 1993 7 SI WA NOT_NAMED 1993-01-28 15:00:00 TS -15.6575 130.593 main 0 0 P___________P_ SH141993 -15.6575 130.593 20 -1 -15.6575 130.593 TC 20 8 263
1993025S12136 1993 7 SI WA NOT_NAMED 1993-01-28 18:00:00 TS -15.7000 130.200 main 0 0 O___________O_ jtwc_sh SH141993 -15.7000 130.200 20 -1 -15.7000 130.200 TC 20 7 268
1993025S12136 1993 7 SI WA NOT_NAMED 1993-01-28 21:00:00 TS -15.6775 129.827 main 0 0 P___________P_ SH141993 -15.6775 129.827 20 -1 -15.6775 129.827 TC 20 7 270
1993025S12136 1993 7 SI WA NOT_NAMED 1993-01-29 00:00:00 TS -15.7000 129.500 main 0 0 O___________O_ jtwc_sh SH141993 -15.7000 129.500 20 -1 -15.7000 129.500 TC 20 6 252
1993025S12136 1993 7 SI WA NOT_NAMED 1993-01-29 03:00:00 TS -15.8624 129.235 main 0 0 P___________P_ SH141993 -15.8624 129.235 20 -1 -15.8624 129.235 TC 20 6 230
1993025S12136 1993 7 SI WA NOT_NAMED 1993-01-29 06:00:00 TS -16.1000 129.000 main 0 0 O___________O_ jtwc_sh SH141993 -16.1000 129.000 20 -1 -16.1000 129.000 TC 20 7 224
1993025S12136 1993 7 SI WA NOT_NAMED 1993-01-29 09:00:00 TS -16.3424 128.757 main 0 0 P___________P_ SH141993 -16.3424 128.757 22 -1 -16.3424 128.757 TC 22 7 224
1993025S12136 1993 7 SI WA NOT_NAMED 1993-01-29 12:00:00 TS -16.6000 128.500 main 0 0 O___________O_ jtwc_sh SH141993 -16.6000 128.500 25 -1 -16.6000 128.500 TC 25 7 226
1993025S12136 1993 7 SI WA NOT_NAMED 1993-01-29 15:00:00 TS -16.8500 128.200 main 0 0 P___________P_ SH141993 -16.8500 128.200 25 -1 -16.8500 128.200 TC 25 8 229
1993025S12136 1993 7 SI WA NOT_NAMED 1993-01-29 18:00:00 TS -17.1000 127.900 main 0 0 O___________O_ jtwc_sh SH141993 -17.1000 127.900 25 -1 -17.1000 127.900 TC 25 7 227
1993025S12136 1993 7 SI WA NOT_NAMED 1993-01-29 21:00:00 TS -17.3499 127.642 main 0 0 P___________P_ SH141993 -17.3499 127.642 25 -1 -17.3499 127.642 TC 25 7 224
1993025S12136 1993 7 SI WA NOT_NAMED 1993-01-30 00:00:00 TS -17.6000 127.400 main 0 0 O___________O_ jtwc_sh SH141993 -17.6000 127.400 25 -1 -17.6000 127.400 TC 25 7 223
1993025S12136 1993 7 SI WA NOT_NAMED 1993-01-30 03:00:00 TS -17.8424 127.157 main 0 0 P___________P_ SH141993 -17.8424 127.157 25 -1 -17.8424 127.157 TC 25 7 224
1993025S12136 1993 7 SI WA NOT_NAMED 1993-01-30 06:00:00 TS -18.1000 126.900 main 0 0 O___________O_ jtwc_sh SH141993 -18.1000 126.900 25 -1 -18.1000 126.900 TC 25 8 224
1993025S12136 1993 7 SI WA NOT_NAMED 1993-01-30 09:00:00 TS -18.4000 126.600 main 0 0 P___________P_ SH141993 -18.4000 126.600 25 -1 -18.4000 126.600 TC 25 8 223
1993025S12136 1993 7 SI WA NOT_NAMED 1993-01-30 12:00:00 TS -18.7000 126.300 main 0 0 O___________O_ jtwc_sh SH141993 -18.7000 126.300 25 -1 -18.7000 126.300 TC 25 8 223
1993025S12136 1993 7 SI WA NOT_NAMED 1993-01-30 15:00:00 TS -18.9649 126.050 main 0 0 P___________P_ SH141993 -18.9649 126.050 25 -1 -18.9649 126.050 TC 25 7 223
1993025S12136 1993 7 SI WA NOT_NAMED 1993-01-30 18:00:00 TS -19.2000 125.800 main 0 0 O___________O_ jtwc_sh SH141993 -19.2000 125.800 25 -1 -19.2000 125.800 TC 25 7 229
1993025S12136 1993 7 SI WA NOT_NAMED 1993-01-30 21:00:00 TS -19.4151 125.493 main 0 0 P___________P_ SH141993 -19.4151 125.493 25 -1 -19.4151 125.493 TC 25 7 235
1993025S12136 1993 7 SI WA NOT_NAMED 1993-01-31 00:00:00 TS -19.6000 125.200 main 0 0 O___________O_ jtwc_sh SH141993 -19.6000 125.200 25 -1 -19.6000 125.200 TC 25 6 234
1993025S12136 1993 7 SI WA NOT_NAMED 1993-01-31 03:00:00 TS -19.7574 124.985 main 0 0 P___________P_ SH141993 -19.7574 124.985 25 -1 -19.7574 124.985 TC 25 5 231
1993025S12136 1993 7 SI WA NOT_NAMED 1993-01-31 06:00:00 TS -19.9000 124.800 main 0 0 O___________O_ jtwc_sh SH141993 -19.9000 124.800 25 -1 -19.9000 124.800 TC 25 5 230
1993025S12136 1993 7 SI WA NOT_NAMED 1993-01-31 09:00:00 TS -20.0575 124.600 main 0 0 P___________P_ SH141993 -20.0575 124.600 25 -1 -20.0575 124.600 TC 25 5 231
1993025S12136 1993 7 SI WA NOT_NAMED 1993-01-31 12:00:00 TS -20.2000 124.400 main 0 0 O___________O_ jtwc_sh SH141993 -20.2000 124.400 25 -1 -20.2000 124.400 TC 25 5 236
1993025S12136 1993 7 SI WA NOT_NAMED 1993-01-31 15:00:00 TS -20.3075 124.200 main 0 0 P___________P_ SH141993 -20.3075 124.200 25 -1 -20.3075 124.200 TC 25 4 242
1993025S12136 1993 7 SI WA NOT_NAMED 1993-01-31 18:00:00 TS -20.4000 124.000 main 0 0 O___________O_ jtwc_sh SH141993 -20.4000 124.000 25 -1 -20.4000 124.000 TC 25 4 243
1993025S12136 1993 7 SI WA NOT_NAMED 1993-01-31 21:00:00 TS -20.5000 123.800 main 0 0 P___________P_ SH141993 -20.5000 123.800 25 -1 -20.5000 123.800 TC 25 4 242
1993025S12136 1993 7 SI WA NOT_NAMED 1993-02-01 00:00:00 TS -20.6000 123.600 main 0 0 O___________O_ jtwc_sh SH141993 -20.6000 123.600 25 -1 -20.6000 123.600 TC 25 4 242
1993025S12136 1993 7 SI WA NOT_NAMED 1993-02-01 03:00:00 TS -20.6924 123.407 main 0 0 P___________P_ SH141993 -20.6924 123.407 27 -1 -20.6924 123.407 TC 27 4 242
1993025S12136 1993 7 SI WA NOT_NAMED 1993-02-01 06:00:00 TS -20.8000 123.200 main 0 0 O___________O_ jtwc_sh SH141993 -20.8000 123.200 30 -1 -20.8000 123.200 TC 30 5 239
1993025S12136 1993 7 SI WA NOT_NAMED 1993-02-01 09:00:00 TS -20.9501 122.943 main 0 0 P___________P_ SH141993 -20.9501 122.943 30 -1 -20.9501 122.943 TC 30 6 237
1993025S12136 1993 7 SI WA NOT_NAMED 1993-02-01 12:00:00 TS -21.1000 122.700 main 0 0 O___________O_ jtwc_sh SH141993 -21.1000 122.700 30 -1 -21.1000 122.700 TC 30 4 235
1993025S12136 1993 7 SI WA NOT_NAMED 1993-02-01 15:00:00 TS -21.2074 122.550 main 0 0 P___________P_ SH141993 -21.2074 122.550 30 -1 -21.2074 122.550 TC 30 3 235
1993025S12136 1993 7 SI WA NOT_NAMED 1993-02-01 18:00:00 TS -21.3000 122.400 main 0 0 O___________O_ jtwc_sh SH141993 -21.3000 122.400 30 -1 -21.3000 122.400 TC 30 4 242
1993025S12136 1993 7 SI WA NOT_NAMED 1993-02-01 21:00:00 TS -21.4000 122.165 main 0 0 P___________P_ SH141993 -21.4000 122.165 30 -1 -21.4000 122.165 TC 30 5 247
1993025S12136 1993 7 SI WA NOT_NAMED 1993-02-02 00:00:00 TS -21.5000 121.900 main 0 0 O___________O_ jtwc_sh SH141993 -21.5000 121.900 30 -1 -21.5000 121.900 TC 30 5 248
1993025S12136 1993 7 SI WA NOT_NAMED 1993-02-02 03:00:00 TS -21.6000 121.642 main 0 0 P___________P_ SH141993 -21.6000 121.642 30 -1 -21.6000 121.642 TC 30 5 247
1993025S12136 1993 7 SI WA NOT_NAMED 1993-02-02 06:00:00 TS -21.7000 121.400 main 0 0 O___________O_ jtwc_sh SH141993 -21.7000 121.400 30 -1 -21.7000 121.400 TC 30 5 244
1993025S12136 1993 7 SI WA NOT_NAMED 1993-02-02 09:00:00 TS -21.7999 121.207 main 0 0 P___________P_ SH141993 -21.7999 121.207 30 -1 -21.7999 121.207 TC 30 4 242
1993025S12136 1993 7 SI WA NOT_NAMED 1993-02-02 12:00:00 TS -21.9000 121.000 main 0 0 O___________O_ jtwc_sh SH141993 -21.9000 121.000 30 -1 -21.9000 121.000 TC 30 5 246
1993025S12136 1993 7 SI WA NOT_NAMED 1993-02-02 15:00:00 TS -22.0076 120.708 main 0 0 P___________P_ SH141993 -22.0076 120.708 30 -1 -22.0076 120.708 TC 30 6 250
1993025S12136 1993 7 SI WA NOT_NAMED 1993-02-02 18:00:00 TS -22.1000 120.400 main 0 0 O___________O_ jtwc_sh SH141993 -22.1000 120.400 30 -1 -22.1000 120.400 TC 30 6 254
1993025S12136 1993 7 SI WA NOT_NAMED 1993-02-02 21:00:00 TS -22.1575 120.135 main 0 0 P___________P_ SH141993 -22.1575 120.135 30 -1 -22.1575 120.135 TC 30 5 258
1993025S12136 1993 7 SI WA NOT_NAMED 1993-02-03 00:00:00 TS -22.2000 119.900 main 0 0 O___________O_ jtwc_sh SH141993 -22.2000 119.900 30 -1 -22.2000 119.900 TC 30 4 258
1993025S12136 1993 7 SI WA NOT_NAMED 1993-02-03 03:00:00 TS -22.2424 119.707 main 0 0 P___________P_ SH141993 -22.2424 119.707 30 -1 -22.2424 119.707 TC 30 4 255
1993025S12136 1993 7 SI WA NOT_NAMED 1993-02-03 06:00:00 TS -22.3000 119.500 main 0 0 O___________O_ jtwc_sh SH141993 -22.3000 119.500 30 -1 -22.3000 119.500 TC 30 5 251
1993025S12136 1993 7 SI WA NOT_NAMED 1993-02-03 09:00:00 TS -22.4000 119.215 main 0 0 P___________P_ SH141993 -22.4000 119.215 30 -1 -22.4000 119.215 TC 30 6 250
1993025S12136 1993 7 SI WA NOT_NAMED 1993-02-03 12:00:00 TS -22.5000 118.900 main 0 0 O___________O_ jtwc_sh SH141993 -22.5000 118.900 30 -1 -22.5000 118.900 TC 30 6 255
1993025S12136 1993 7 SI WA NOT_NAMED 1993-02-03 15:00:00 TS -22.5499 118.600 main 0 0 P___________P_ SH141993 -22.5499 118.600 30 -1 -22.5499 118.600 TC 30 6 260
1993025S12136 1993 7 SI WA NOT_NAMED 1993-02-03 18:00:00 TS -22.6000 118.300 main 0 0 O___________O_ jtwc_sh SH141993 -22.6000 118.300 30 -1 -22.6000 118.300 TC 30 6 255
1993025S12136 1993 7 SI WA NOT_NAMED 1993-02-03 21:00:00 TS -22.6999 118.000 main 0 0 P___________P_ SH141993 -22.6999 118.000 30 -1 -22.6999 118.000 TC 30 6 250
1993025S12136 1993 7 SI WA NOT_NAMED 1993-02-04 00:00:00 TS -22.8000 117.700 main 0 0 O___________O_ jtwc_sh SH141993 -22.8000 117.700 30 -1 -22.8000 117.700 TC 30 6 254
1993025S12136 1993 7 SI WA NOT_NAMED 1993-02-04 03:00:00 TS -22.8574 117.407 main 0 0 P___________P_ SH141993 -22.8574 117.407 30 -1 -22.8574 117.407 TC 30 6 260
1993025S12136 1993 7 SI WA NOT_NAMED 1993-02-04 06:00:00 TS -22.9000 117.100 main 0 0 O___________O_ jtwc_sh SH141993 -22.9000 117.100 30 -1 -22.9000 117.100 TC 30 6 261
1993025S12136 1993 7 SI WA NOT_NAMED 1993-02-04 09:00:00 TS -22.9501 116.743 main 0 0 P___________P_ SH141993 -22.9501 116.743 30 -1 -22.9501 116.743 TC 30 7 261
1993025S12136 1993 7 SI WA NOT_NAMED 1993-02-04 12:00:00 TS -23.0000 116.400 main 0 0 O___________O_ jtwc_sh SH141993 -23.0000 116.400 30 -1 -23.0000 116.400 TC 30 6 260
1993025S12136 1993 7 SI WA NOT_NAMED 1993-02-04 15:00:00 TS -23.0499 116.135 main 0 0 P___________P_ SH141993 -23.0499 116.135 30 -1 -23.0499 116.135 TC 30 5 258
1993025S12136 1993 7 SI WA NOT_NAMED 1993-02-04 18:00:00 TS -23.1000 115.900 main 0 0 O___________O_ jtwc_sh SH141993 -23.1000 115.900 30 -1 -23.1000 115.900 TC 30 4 254
1993025S12136 1993 7 SI WA NOT_NAMED 1993-02-04 21:00:00 TS -23.1724 115.665 main 0 0 P___________P_ SH141993 -23.1724 115.665 32 -1 -23.1724 115.665 TC 32 5 258
1993025S12136 1993 7 SI WA NOT_NAMED 1993-02-05 00:00:00 TS -23.2000 115.400 main 0 0 O___________O_ jtwc_sh SH141993 -23.2000 115.400 35 0 -23.2000 115.400 TC 35 6 276
1993025S12136 1993 7 SI WA NOT_NAMED 1993-02-05 03:00:00 TS -23.1151 115.057 main 0 0 P___________P_ SH141993 -23.1151 115.057 35 0 -23.1151 115.057 TC 35 7 287
1993025S12136 1993 7 SI WA NOT_NAMED 1993-02-05 06:00:00 TS -23.0000 114.700 main 0 0 O___________O_ jtwc_sh SH141993 -23.0000 114.700 35 0 -23.0000 114.700 TC 35 6 286
1993025S12136 1993 7 SI WA NOT_NAMED 1993-02-05 09:00:00 TS -22.9424 114.400 main 0 0 P___________P_ SH141993 -22.9424 114.400 35 0 -22.9424 114.400 TC 35 6 280
1993025S12136 1993 7 SI WA NOT_NAMED 1993-02-05 12:00:00 TS -22.9000 114.100 main 0 0 O___________O_ jtwc_sh SH141993 -22.9000 114.100 35 0 -22.9000 114.100 TC 35 6 279
1993025S12136 1993 7 SI WA NOT_NAMED 1993-02-05 15:00:00 TS -22.8500 113.758 main 0 0 P___________P_ SH141993 -22.8500 113.758 35 0 -22.8500 113.758 TC 35 7 279
1993025S12136 1993 7 SI WA NOT_NAMED 1993-02-05 18:00:00 TS -22.8000 113.400 main 30 30 O___________O_ jtwc_sh SH141993 -22.8000 113.400 35 0 -22.8000 113.400 TC 35 7 279
1993025S12136 1993 7 SI WA NOT_NAMED 1993-02-05 21:00:00 TS -22.7499 113.058 main 52 52 P___________P_ SH141993 -22.7499 113.058 35 0 -22.7499 113.058 TC 35 7 279
1993025S12136 1993 7 SI WA NOT_NAMED 1993-02-06 00:00:00 TS -22.7000 112.700 main 92 92 O___________O_ jtwc_sh SH141993 -22.7000 112.700 35 0 -22.7000 112.700 TC 35 7 278
1993025S12136 1993 7 SI WA NOT_NAMED 1993-02-06 03:00:00 TS -22.6575 112.308 main 133 133 P___________P_ SH141993 -22.6575 112.308 35 0 -22.6575 112.308 TC 35 7 278
1993025S12136 1993 7 SI WA NOT_NAMED 1993-02-06 06:00:00 TS -22.6000 111.900 main 174 174 O___________O_ jtwc_sh SH141993 -22.6000 111.900 35 0 -22.6000 111.900 TC 35 7 281
1993025S12136 1993 7 SI WA NOT_NAMED 1993-02-06 09:00:00 TS -22.5146 111.530 main 215 215 P___________P_ SH141993 -22.5146 111.530 35 0 -22.5146 111.530 TC 35 8 285
1993025S12136 1993 7 SI WA NOT_NAMED 1993-02-06 12:00:00 TS -22.4000 111.100 main 257 257 O___________O_ jtwc_sh SH141993 -22.4000 111.100 35 0 -22.4000 111.100 TC 35 9 285
1993025S12136 1993 7 SI WA NOT_NAMED 1993-02-06 15:00:00 TS -22.2725 110.538 main 320 320 P___________P_ SH141993 -22.2725 110.538 35 0 -22.2725 110.538 TC 35 12 285
1993025S12136 1993 7 SI WA NOT_NAMED 1993-02-06 18:00:00 TS -22.1000 109.900 main 384 384 O___________O_ jtwc_sh SH141993 -22.1000 109.900 35 0 -22.1000 109.900 TC 35 12 290
1993025S12136 1993 7 SI WA NOT_NAMED 1993-02-06 21:00:00 TS -21.8420 109.280 main 451 451 P___________P_ SH141993 -21.8420 109.280 32 -1 -21.8420 109.280 TC 32 13 293
1993025S12136 1993 7 SI WA NOT_NAMED 1993-02-07 00:00:00 TS -21.6000 108.600 main 526 526 O___________O_ jtwc_sh SH141993 -21.6000 108.600 30 -1 -21.6000 108.600 TC 30 14 285
1993025S12136 1993 7 SI WA NOT_NAMED 1993-02-07 03:00:00 TS -21.4772 107.838 main 610 610 P___________P_ SH141993 -21.4772 107.838 30 -1 -21.4772 107.838 TC 30 15 278
1993025S12136 1993 7 SI WA NOT_NAMED 1993-02-07 06:00:00 TS -21.4000 107.000 main 693 693 O___________O_ jtwc_sh SH141993 -21.4000 107.000 30 -1 -21.4000 107.000 TC 30 16 277
1993025S12136 1993 7 SI WA NOT_NAMED 1993-02-07 09:00:00 TS -21.2921 106.122 main 786 786 P___________P_ SH141993 -21.2921 106.122 27 -1 -21.2921 106.122 TC 27 17 277
1993025S12136 1993 7 SI WA NOT_NAMED 1993-02-07 12:00:00 TS -21.2000 105.200 main 880 880 O___________O_ jtwc_sh SH141993 -21.2000 105.200 25 -1 -21.2000 105.200 TC 25 18 275
1993025S12136 1993 7 SI WA NOT_NAMED 1993-02-07 15:00:00 TS -21.1425 104.235 main 984 984 P___________P_ SH141993 -21.1425 104.235 25 -1 -21.1425 104.235 TC 25 18 273
1993025S12136 1993 7 SI WA NOT_NAMED 1993-02-07 18:00:00 TS -21.1000 103.300 main 1075 1075 O___________O_ jtwc_sh SH141993 -21.1000 103.300 25 -1 -21.1000 103.300 TC 25 17 274
1993025S12136 1993 7 SI WA NOT_NAMED 1993-02-07 21:00:00 TS -21.0347 102.447 main 1169 1169 P___________P_ SH141993 -21.0347 102.447 25 -1 -21.0347 102.447 TC 25 15 274
1993025S12136 1993 7 SI WA NOT_NAMED 1993-02-08 00:00:00 TS -21.0000 101.700 main 1240 1240 O___________O_ jtwc_sh SH141993 -21.0000 101.700 25 -1 -21.0000 101.700 TC 25 13 270
1993025S12136 1993 7 SI WA NOT_NAMED 1993-02-08 03:00:00 TS -21.0346 101.048 main 1312 1312 P___________P_ SH141993 -21.0346 101.048 25 -1 -21.0346 101.048 TC 25 11 265
1993025S12136 1993 7 SI WA NOT_NAMED 1993-02-08 06:00:00 TS -21.1000 100.500 main 1361 1361 O___________O_ jtwc_sh SH141993 -21.1000 100.500 25 -1 -21.1000 100.500 TC 25 9 264
1993025S12136 1993 7 SI WA NOT_NAMED 1993-02-08 09:00:00 TS -21.1346 100.042 main 1412 1412 P___________P_ SH141993 -21.1346 100.042 25 -1 -21.1346 100.042 TC 25 8 263
1993025S12136 1993 7 SI WA NOT_NAMED 1993-02-08 12:00:00 TS -21.2000 99.6000 main 1451 1451 O___________O_ jtwc_sh SH141993 -21.2000 99.6000 25 -1 -21.2000 99.6000 TC 25 9 259
1993025S12136 1993 7 SI WA NOT_NAMED 1993-02-08 15:00:00 TS -21.3200 99.0574 main 1501 1501 P___________P_ SH141993 -21.3200 99.0574 25 -1 -21.3200 99.0574 TC 25 11 254
1993025S12136 1993 7 SI WA NOT_NAMED 1993-02-08 18:00:00 TS -21.5000 98.5000 main 1558 1558 O___________O_ jtwc_sh SH141993 -21.5000 98.5000 25 -1 -21.5000 98.5000 TC 25 11 247
1993025S12136 1993 7 SI WA NOT_NAMED 1993-02-08 21:00:00 TS -21.7422 98.0000 main 1602 1600 P___________P_ SH141993 -21.7422 98.0000 25 -1 -21.7422 98.0000 TC 25 11 242
1993025S12136 1993 7 SI WA NOT_NAMED 1993-02-09 00:00:00 TS -22.0000 97.5000 main 1645 1645 O___________O_ jtwc_sh SH141993 -22.0000 97.5000 25 -1 -22.0000 97.5000 TC 25 11 246
1993025S12136 1993 7 SI WA NOT_NAMED 1993-02-09 03:00:00 TS -22.1850 96.9496 main 1701 1701 P___________P_ SH141993 -22.1850 96.9496 25 -1 -22.1850 96.9496 TC 25 11 249
1993025S12136 1993 7 SI WA NOT_NAMED 1993-02-09 06:00:00 TS -22.4000 96.4000 main 1747 1747 O___________O_ jtwc_sh SH141993 -22.4000 96.4000 25 -1 -22.4000 96.4000 TC 25 11 241
1993025S12136 1993 7 SI WA NOT_NAMED 1993-02-09 09:00:00 TS -22.7177 95.8882 main 1791 1791 P___________P_ SH141993 -22.7177 95.8882 25 -1 -22.7177 95.8882 TC 25 12 233
1993025S12136 1993 7 SI WA NOT_NAMED 1993-02-09 12:00:00 TS -23.1000 95.4000 main 1835 O___________O_ jtwc_sh SH141993 -23.1000 95.4000 25 -1 -23.1000 95.4000 TC 25 12 230

デジタル台風データ・検索

IBTrACS Databaseについて

本データベースは、米国NOAAが公開する1842年以降の世界の熱帯低気圧のベストトラックデータアーカイブInternational Best Track Archive for Climate Stewardship (IBTrACS)を、ウェブで閲覧しやすい形式に変換したものです。

最終更新日:2021-12-06